Airfield :
LOGIN :

Register | Disclaimer

   EN    FR    IT 

 










Legend :    VFR   Marginal VFR   IFR   Intensive IFR   Very Intensive IFR
Visi :
Ceiling :
>= 8 km
>= 3000ft
5 to 8 km
1000 to 3000 ft
1500m to 5 km
500 to 1000 ft
800 to 1500m
200 to 500 ft
< 800m
< 200 ft
Symbols :   Thunderstorms  Fog  Heavy snow  Heavy precipitations  Wind > 20 kt
SIGMETs :     Misc.  Thunderstorms  Icing  Turbulence  Mountain Waves  Volcanic Ashes






- Airport Elevation : 506 ft
- IATA code : GOT


ESGG - Landvetter

CURRENT METAR :
  • 150320Z 10006KT 0650 R03/P1500N R21/P1500N FG VV003 03/02 Q1018 R21/29//95

EXPIRED METARs :
  • 150250Z 11006KT 0300 R03/1000U R21/1000U FG VV002 02/02 Q1018 R21/29//95
  • 150220Z 10004KT 070V150 0200 R03/0650N R21/0550N FG VV003 02/02 Q1018 R21/29//95
  • 150150Z 10004KT 0500 R03/1400N R21/P1500N FG NSC 02/01 Q1018 R21/29//95
  • 150120Z 11006KT 0200 R03/0650N R21/0600N FG VV003 02/02 Q1018 R21/29//95
  • 150050Z 10006KT 0200 R03/0600N R21/0500N FG VV003 02/01 Q1017 R21/29//95

TAF TAF ESGG
Valid from the 15 at 00:00 until the 16 at 00:00 UTC


142330Z 1500/1524 12006KT 0200 FG VV002
PROB40 1500/1505 1000 BR BKN005
TEMPO 1505/1511 9999 NSW SCT010
BECMG 1511/1513 9999 NSW SCT015



MET'MAP, your aeronautical weather chart ! - Copyright ORBIFLY December 2007 - Disclaimer

ORBIFLY MET'MAP TEAM :

Programming & Development : Alexandra Zaïnal
Concept & Development : Baudouin d'Aumeries
Co-Development & Prog : Marc-Olivier Méhu
Technical & hardware support : Manuel Goepfert

Contact : metmap@orbifly.com




SOURCES & CREDITS :

   NOAA